Elkins, WV (26241)

1:10 PM EDT on July 26, 2016 (GMT -0400)
Oak Grove | | Change Station

Elev 1940 ft 38.93 °N, 79.87 °W | Updated 1 second ago

Partly Cloudy
Partly Cloudy
84.2 °F
Feels Like 83 °F
N
0.0
Wind Variable Wind from NE
Gusts 0.0 mph

Today
High -- | Low -- °F
--% Chance of Precip.
Yesterday
High -- | Low -- °F
Precip. -- in
Pressure 30.06 in
Visibility 10.0 miles
Clouds Few 4600 ft
Heat Index 83 °F
Dew Point 54 °F
Humidity 36%
Rainfall 0.00 in
Snow Depth Not available.
6:15 AM 8:35 PM
Waning Gibbous, 53% visible
METAR KEKN 261651Z AUTO VRB03KT 10SM FEW046 28/21 A3011 RMK AO2 SLP180 T02830206 TSNO
Pressure 30.06 in
Visibility 10.0 miles
Clouds Few 4600 ft
Heat Index 83 °F
Dew Point 54 °F
Humidity 36%
Rainfall 0.00 in
Snow Depth Not available.
6:15 AM 8:35 PM
Waning Gibbous, 53% visible
METAR KEKN 261651Z AUTO VRB03KT 10SM FEW046 28/21 A3011 RMK AO2 SLP180 T02830206 TSNO

10-Day Weather Forecast

Almanac

Astronomy

Jul. 26, 2016 Rise Set
Actual Time
Civil Twilight
Nautical Twilight
Astronomical Twilight
Moon
Length of Visible Light
Length of Day
Tomorrow will be .
, % of the Moon is Illuminated

Today's Extremes

State Highs State Lows

Community

WunderPhotos

Upload Photos

1,927,635 photos uploaded!

WunderBlog® & News

Nearby

Air Quality

  Air Quality AQ Index Pollutant
Not available.

Snow Depth

Station Depth Elevation

Earthquake Activity

City Distance Mag. Time & Date
Minimum magnitude displayed is 2.5.

Coastal Water Temperatures

Place Temperature

Stations

Nearby Weather Stations

Station Location Temp. Windchill Dew Point Humidity Wind Precip. Elev Updated Type
                   

Watches & Warnings

There are currently no watches in effect.